Pagina principale
METAR-TAF:

METAR-TAF

Aeroporti :

Parco nazionale Kruger, Sudafrica

latitudine: 25-23-00S, longitudine: 31-06-20E, altezza: 862 m

Osservazione

Il bollettino è stato emesso 33 minuti fa, alle 00:00 UTC
Vento calmo
Temperature 14°C
Umidità 94%
Pressione 1029 hPa

METAR: FAKN 310000Z AUTO 00000KT //// // ////// 14/13 Q1029

Ora: 02:33 (00:33 UTC)

Previsione

Il bollettino è stato emesso 15 ore e 33 minuti fa, alle 09:00 UTC
Previsione valida dal 30 alle 10 UTC al 30 alle 18 UTC
Vento 3 kt da direzioni variabili
Visibilità 10 km o più
nessuna nube inferiore a 1500 m e nessun cumulonembo
Evoluzione graduale
dal 30 alle 10 UTC al 30 alle 12 UTC
Vento 10 kt da est/nord-est
Evoluzione graduale
dal 30 alle 14 UTC al 30 alle 16 UTC
Vento 3 kt da direzioni variabili

TAF: FAKN 300900Z 3010/3018 VRB03KT CAVOK TX24/3013Z TN14/3018Z BECMG 3010/3012 06010KT BECMG 3014/3016 VRB03KT

Osservazioni e previsioni meteorologiche di più di 4000 aeroporti (messaggi METAR e TAF).

Le stazioni disponibili sono rappresentate dai dischi gialli e rossi sulla carta.

Puntare il mouse per vedere il nome della stazione.

Clicca sopra per visualizzare le osservazioni e previsioni meteorologiche.

Per cambiare la mappa : fare clic sui pulsanti verdi con una croce nera per ingrandire, il pulsante verde con un trattino per diminuire, o sulla freccia verde per le mappe adiacenti.


METAR-TAF: